Waarschoot, Belgium
Current Conditions -  °F | °C
As of 4:55 AM on Thursday 23 Oct 2014 (Local Time) from EHFS Reporting Station
Overcast Overcast  
Wind Chill: 54°   Ceiling: 2800
Heat Index: 54°   Visibility: 6mi
Dew Point: 50°   Wind: 15mph
Humidity: 88%   Direction: 220°SW
Pressure: 30.15"   Gusts: NA
Location:  51.15°N, 3.61°E
Report Text: EHFS 230255Z AUTO 22013KT 9999 BKN028/// OVC031/// 12/10 Q1021
Loading
Personal Weather Stations






























Interactive Weather Map
Tropical Storm Tracking
New forecast layout! Learn more

10-Day Weather Forecast

Advertisements
Track Severe Weather on mobile